sensor_id;sensor_type;location;lat;lon;timestamp;P1;durP1;ratioP1;P2;durP2;ratioP2
16139;SDS011;8175;49.326;12.690;2023-05-07T00:00:35;8.63;;;6.27;;
16139;SDS011;8175;49.326;12.690;2023-05-07T00:03:01;7.10;;;6.40;;
16139;SDS011;8175;49.326;12.690;2023-05-07T00:05:26;7.23;;;6.53;;
16139;SDS011;8175;49.326;12.690;2023-05-07T00:07:52;7.37;;;6.63;;
16139;SDS011;8175;49.326;12.690;2023-05-07T00:10:18;6.70;;;6.10;;
16139;SDS011;8175;49.326;12.690;2023-05-07T00:12:44;6.90;;;6.20;;
16139;SDS011;8175;49.326;12.690;2023-05-07T00:15:10;6.33;;;5.73;;
16139;SDS011;8175;49.326;12.690;2023-05-07T00:17:36;6.93;;;6.33;;
16139;SDS011;8175;49.326;12.690;2023-05-07T00:20:02;7.60;;;6.80;;
16139;SDS011;8175;49.326;12.690;2023-05-07T00:22:29;7.57;;;6.57;;
16139;SDS011;8175;49.326;12.690;2023-05-07T00:24:56;8.50;;;7.60;;
16139;SDS011;8175;49.326;12.690;2023-05-07T00:27:22;8.07;;;6.50;;
16139;SDS011;8175;49.326;12.690;2023-05-07T00:29:47;7.70;;;6.93;;
16139;SDS011;8175;49.326;12.690;2023-05-07T00:32:13;9.27;;;7.43;;
16139;SDS011;8175;49.326;12.690;2023-05-07T00:34:40;7.80;;;7.00;;
16139;SDS011;8175;49.326;12.690;2023-05-07T00:37:05;8.23;;;7.30;;
16139;SDS011;8175;49.326;12.690;2023-05-07T00:39:32;7.87;;;7.07;;
16139;SDS011;8175;49.326;12.690;2023-05-07T00:41:58;8.17;;;7.37;;
16139;SDS011;8175;49.326;12.690;2023-05-07T00:44:25;9.40;;;7.73;;
16139;SDS011;8175;49.326;12.690;2023-05-07T00:46:51;7.67;;;6.87;;
16139;SDS011;8175;49.326;12.690;2023-05-07T00:49:18;8.97;;;8.03;;
16139;SDS011;8175;49.326;12.690;2023-05-07T00:51:45;9.00;;;7.53;;
16139;SDS011;8175;49.326;12.690;2023-05-07T00:54:11;10.43;;;8.87;;
16139;SDS011;8175;49.326;12.690;2023-05-07T00:56:38;8.80;;;7.90;;
16139;SDS011;8175;49.326;12.690;2023-05-07T00:59:04;9.33;;;7.70;;
16139;SDS011;8175;49.326;12.690;2023-05-07T01:01:31;9.77;;;8.60;;
16139;SDS011;8175;49.326;12.690;2023-05-07T01:03:57;8.53;;;7.77;;
16139;SDS011;8175;49.326;12.690;2023-05-07T01:06:23;9.03;;;8.13;;
16139;SDS011;8175;49.326;12.690;2023-05-07T01:08:52;9.43;;;8.13;;
16139;SDS011;8175;49.326;12.690;2023-05-07T01:11:21;11.17;;;8.17;;
16139;SDS011;8175;49.326;12.690;2023-05-07T01:13:47;9.17;;;8.10;;
16139;SDS011;8175;49.326;12.690;2023-05-07T01:16:15;8.90;;;8.00;;
16139;SDS011;8175;49.326;12.690;2023-05-07T01:18:41;10.50;;;9.20;;
16139;SDS011;8175;49.326;12.690;2023-05-07T01:21:06;9.57;;;8.57;;
16139;SDS011;8175;49.326;12.690;2023-05-07T01:23:35;10.60;;;9.50;;
16139;SDS011;8175;49.326;12.690;2023-05-07T01:26:01;11.80;;;10.07;;
16139;SDS011;8175;49.326;12.690;2023-05-07T01:28:27;11.77;;;9.30;;
16139;SDS011;8175;49.326;12.690;2023-05-07T01:30:54;11.70;;;10.43;;
16139;SDS011;8175;49.326;12.690;2023-05-07T01:33:26;11.83;;;9.77;;
16139;SDS011;8175;49.326;12.690;2023-05-07T01:35:56;10.67;;;9.33;;
16139;SDS011;8175;49.326;12.690;2023-05-07T01:38:25;13.23;;;10.47;;
16139;SDS011;8175;49.326;12.690;2023-05-07T01:40:52;11.10;;;9.63;;
16139;SDS011;8175;49.326;12.690;2023-05-07T01:43:18;12.03;;;10.77;;
16139;SDS011;8175;49.326;12.690;2023-05-07T01:45:44;15.33;;;12.03;;
16139;SDS011;8175;49.326;12.690;2023-05-07T01:48:11;11.70;;;10.20;;
16139;SDS011;8175;49.326;12.690;2023-05-07T01:50:37;13.63;;;10.70;;
16139;SDS011;8175;49.326;12.690;2023-05-07T01:53:04;12.60;;;11.10;;
16139;SDS011;8175;49.326;12.690;2023-05-07T01:55:30;13.20;;;11.23;;
16139;SDS011;8175;49.326;12.690;2023-05-07T01:57:55;11.30;;;9.70;;
16139;SDS011;8175;49.326;12.690;2023-05-07T02:00:21;11.97;;;10.13;;
16139;SDS011;8175;49.326;12.690;2023-05-07T02:02:47;11.00;;;10.00;;
16139;SDS011;8175;49.326;12.690;2023-05-07T02:05:13;11.43;;;10.23;;
16139;SDS011;8175;49.326;12.690;2023-05-07T02:07:38;11.03;;;9.50;;
16139;SDS011;8175;49.326;12.690;2023-05-07T02:10:04;9.77;;;8.50;;
16139;SDS011;8175;49.326;12.690;2023-05-07T02:12:30;9.50;;;8.50;;
16139;SDS011;8175;49.326;12.690;2023-05-07T02:14:56;8.83;;;7.93;;
16139;SDS011;8175;49.326;12.690;2023-05-07T04:26:17;16.60;;;14.07;;
16139;SDS011;8175;49.326;12.690;2023-05-07T04:28:43;18.03;;;15.67;;
16139;SDS011;8175;49.326;12.690;2023-05-07T04:31:08;17.57;;;14.70;;
16139;SDS011;8175;49.326;12.690;2023-05-07T04:33:34;19.97;;;14.83;;
16139;SDS011;8175;49.326;12.690;2023-05-07T04:36:03;17.93;;;15.10;;
16139;SDS011;8175;49.326;12.690;2023-05-07T04:38:30;20.10;;;15.93;;
16139;SDS011;8175;49.326;12.690;2023-05-07T04:40:56;16.13;;;13.77;;
16139;SDS011;8175;49.326;12.690;2023-05-07T04:43:23;17.83;;;14.67;;
16139;SDS011;8175;49.326;12.690;2023-05-07T04:45:52;17.70;;;14.43;;
16139;SDS011;8175;49.326;12.690;2023-05-07T04:48:17;16.37;;;12.83;;
16139;SDS011;8175;49.326;12.690;2023-05-07T04:50:48;14.23;;;12.70;;
16139;SDS011;8175;49.326;12.690;2023-05-07T04:53:14;14.93;;;13.10;;
16139;SDS011;8175;49.326;12.690;2023-05-07T04:55:40;18.17;;;13.63;;
16139;SDS011;8175;49.326;12.690;2023-05-07T04:58:05;14.83;;;13.17;;
16139;SDS011;8175;49.326;12.690;2023-05-07T05:00:31;15.37;;;13.67;;
16139;SDS011;8175;49.326;12.690;2023-05-07T05:02:57;15.20;;;12.83;;
16139;SDS011;8175;49.326;12.690;2023-05-07T05:05:22;15.53;;;12.90;;
16139;SDS011;8175;49.326;12.690;2023-05-07T05:07:48;15.10;;;12.67;;
16139;SDS011;8175;49.326;12.690;2023-05-07T05:10:13;15.60;;;12.67;;
16139;SDS011;8175;49.326;12.690;2023-05-07T05:12:39;15.60;;;12.67;;
16139;SDS011;8175;49.326;12.690;2023-05-07T05:15:05;13.73;;;12.30;;
16139;SDS011;8175;49.326;12.690;2023-05-07T05:17:31;14.17;;;12.67;;
16139;SDS011;8175;49.326;12.690;2023-05-07T05:19:59;15.53;;;12.53;;
16139;SDS011;8175;49.326;12.690;2023-05-07T05:22:24;14.20;;;11.83;;
16139;SDS011;8175;49.326;12.690;2023-05-07T05:24:50;15.37;;;11.87;;
16139;SDS011;8175;49.326;12.690;2023-05-07T05:27:16;13.33;;;11.80;;
16139;SDS011;8175;49.326;12.690;2023-05-07T05:29:42;13.67;;;11.20;;
16139;SDS011;8175;49.326;12.690;2023-05-07T05:32:07;12.97;;;11.67;;
16139;SDS011;8175;49.326;12.690;2023-05-07T05:34:33;15.03;;;13.37;;
16139;SDS011;8175;49.326;12.690;2023-05-07T05:36:58;14.00;;;12.50;;
16139;SDS011;8175;49.326;12.690;2023-05-07T05:39:24;12.63;;;11.30;;
16139;SDS011;8175;49.326;12.690;2023-05-07T05:41:50;12.90;;;11.60;;
16139;SDS011;8175;49.326;12.690;2023-05-07T05:44:16;14.90;;;11.40;;
16139;SDS011;8175;49.326;12.690;2023-05-07T05:46:41;13.17;;;11.77;;
16139;SDS011;8175;49.326;12.690;2023-05-07T05:49:07;12.40;;;11.17;;
16139;SDS011;8175;49.326;12.690;2023-05-07T05:51:33;13.03;;;10.80;;
16139;SDS011;8175;49.326;12.690;2023-05-07T05:53:59;12.13;;;10.87;;
16139;SDS011;8175;49.326;12.690;2023-05-07T05:56:24;12.93;;;10.97;;
16139;SDS011;8175;49.326;12.690;2023-05-07T05:58:50;13.20;;;10.53;;
16139;SDS011;8175;49.326;12.690;2023-05-07T06:01:17;11.23;;;10.03;;
16139;SDS011;8175;49.326;12.690;2023-05-07T06:03:43;11.80;;;10.63;;
16139;SDS011;8175;49.326;12.690;2023-05-07T06:06:09;11.30;;;9.50;;
16139;SDS011;8175;49.326;12.690;2023-05-07T06:08:35;12.53;;;10.33;;
16139;SDS011;8175;49.326;12.690;2023-05-07T06:11:01;11.57;;;10.47;;
16139;SDS011;8175;49.326;12.690;2023-05-07T06:13:27;11.07;;;9.80;;
16139;SDS011;8175;49.326;12.690;2023-05-07T06:15:53;10.63;;;9.53;;
16139;SDS011;8175;49.326;12.690;2023-05-07T06:18:19;15.80;;;12.27;;
16139;SDS011;8175;49.326;12.690;2023-05-07T06:20:44;15.30;;;13.17;;
16139;SDS011;8175;49.326;12.690;2023-05-07T06:23:10;12.33;;;11.10;;
16139;SDS011;8175;49.326;12.690;2023-05-07T06:25:36;11.40;;;10.20;;
16139;SDS011;8175;49.326;12.690;2023-05-07T06:28:02;11.60;;;10.30;;
16139;SDS011;8175;49.326;12.690;2023-05-07T06:30:27;11.37;;;10.17;;
16139;SDS011;8175;49.326;12.690;2023-05-07T06:32:53;11.70;;;10.50;;
16139;SDS011;8175;49.326;12.690;2023-05-07T06:35:19;9.83;;;8.77;;
16139;SDS011;8175;49.326;12.690;2023-05-07T06:37:44;11.10;;;9.87;;
16139;SDS011;8175;49.326;12.690;2023-05-07T06:40:10;10.80;;;9.80;;
16139;SDS011;8175;49.326;12.690;2023-05-07T06:42:36;9.70;;;8.80;;
16139;SDS011;8175;49.326;12.690;2023-05-07T06:45:02;10.43;;;9.33;;
16139;SDS011;8175;49.326;12.690;2023-05-07T06:47:28;10.10;;;9.00;;
16139;SDS011;8175;49.326;12.690;2023-05-07T06:49:54;10.07;;;8.53;;
16139;SDS011;8175;49.326;12.690;2023-05-07T06:52:20;9.03;;;7.97;;
16139;SDS011;8175;49.326;12.690;2023-05-07T06:54:45;9.17;;;8.27;;
16139;SDS011;8175;49.326;12.690;2023-05-07T06:57:11;10.27;;;8.17;;
16139;SDS011;8175;49.326;12.690;2023-05-07T06:59:36;8.00;;;7.23;;
16139;SDS011;8175;49.326;12.690;2023-05-07T07:02:02;10.20;;;9.10;;
16139;SDS011;8175;49.326;12.690;2023-05-07T07:04:28;7.97;;;7.17;;
16139;SDS011;8175;49.326;12.690;2023-05-07T07:06:53;8.87;;;7.97;;
16139;SDS011;8175;49.326;12.690;2023-05-07T07:09:19;9.87;;;8.50;;
16139;SDS011;8175;49.326;12.690;2023-05-07T07:11:45;9.67;;;8.73;;
16139;SDS011;8175;49.326;12.690;2023-05-07T07:14:10;9.13;;;8.23;;
16139;SDS011;8175;49.326;12.690;2023-05-07T07:16:36;9.27;;;8.43;;
16139;SDS011;8175;49.326;12.690;2023-05-07T07:19:02;10.60;;;9.33;;
16139;SDS011;8175;49.326;12.690;2023-05-07T07:21:27;8.80;;;8.00;;
16139;SDS011;8175;49.326;12.690;2023-05-07T07:23:53;11.33;;;9.43;;
16139;SDS011;8175;49.326;12.690;2023-05-07T07:26:18;8.73;;;7.93;;
16139;SDS011;8175;49.326;12.690;2023-05-07T07:28:44;9.50;;;8.60;;
16139;SDS011;8175;49.326;12.690;2023-05-07T07:31:11;8.43;;;7.63;;
16139;SDS011;8175;49.326;12.690;2023-05-07T07:33:37;8.73;;;7.93;;
16139;SDS011;8175;49.326;12.690;2023-05-07T07:36:03;8.80;;;8.00;;
16139;SDS011;8175;49.326;12.690;2023-05-07T07:38:30;8.38;;;7.68;;
16139;SDS011;8175;49.326;12.690;2023-05-07T07:40:55;8.35;;;7.55;;
16139;SDS011;8175;49.326;12.690;2023-05-07T07:43:21;7.75;;;7.13;;
16139;SDS011;8175;49.326;12.690;2023-05-07T07:45:47;8.65;;;7.85;;
16139;SDS011;8175;49.326;12.690;2023-05-07T07:48:12;8.55;;;7.63;;
16139;SDS011;8175;49.326;12.690;2023-05-07T07:50:38;8.80;;;8.00;;
16139;SDS011;8175;49.326;12.690;2023-05-07T07:53:03;9.30;;;8.40;;
16139;SDS011;8175;49.326;12.690;2023-05-07T07:55:29;9.65;;;8.73;;
16139;SDS011;8175;49.326;12.690;2023-05-07T07:57:56;9.80;;;8.90;;
16139;SDS011;8175;49.326;12.690;2023-05-07T08:00:21;8.15;;;7.32;;
16139;SDS011;8175;49.326;12.690;2023-05-07T08:02:47;9.25;;;8.32;;
16139;SDS011;8175;49.326;12.690;2023-05-07T08:05:13;9.32;;;8.20;;
16139;SDS011;8175;49.326;12.690;2023-05-07T08:07:38;9.85;;;8.70;;
16139;SDS011;8175;49.326;12.690;2023-05-07T08:10:04;10.68;;;9.00;;
16139;SDS011;8175;49.326;12.690;2023-05-07T08:12:30;8.43;;;7.63;;
16139;SDS011;8175;49.326;12.690;2023-05-07T08:14:55;8.45;;;7.75;;
16139;SDS011;8175;49.326;12.690;2023-05-07T08:17:21;8.50;;;7.70;;
16139;SDS011;8175;49.326;12.690;2023-05-07T08:19:47;8.93;;;7.93;;
16139;SDS011;8175;49.326;12.690;2023-05-07T08:22:13;8.65;;;7.85;;
16139;SDS011;8175;49.326;12.690;2023-05-07T08:24:39;8.43;;;7.40;;
16139;SDS011;8175;49.326;12.690;2023-05-07T08:27:05;7.72;;;7.13;;
16139;SDS011;8175;49.326;12.690;2023-05-07T08:29:30;8.32;;;7.47;;
16139;SDS011;8175;49.326;12.690;2023-05-07T08:31:56;9.32;;;8.52;;
16139;SDS011;8175;49.326;12.690;2023-05-07T08:34:22;8.98;;;8.13;;
16139;SDS011;8175;49.326;12.690;2023-05-07T08:36:48;8.23;;;7.43;;
16139;SDS011;8175;49.326;12.690;2023-05-07T08:39:14;7.25;;;6.65;;
16139;SDS011;8175;49.326;12.690;2023-05-07T08:41:42;5.38;;;4.97;;
16139;SDS011;8175;49.326;12.690;2023-05-07T08:44:12;6.13;;;5.53;;
16139;SDS011;8175;49.326;12.690;2023-05-07T08:46:39;5.43;;;5.03;;
16139;SDS011;8175;49.326;12.690;2023-05-07T08:49:06;5.53;;;5.10;;
16139;SDS011;8175;49.326;12.690;2023-05-07T08:51:32;5.40;;;4.90;;
16139;SDS011;8175;49.326;12.690;2023-05-07T08:53:59;4.93;;;4.53;;
16139;SDS011;8175;49.326;12.690;2023-05-07T08:56:26;6.00;;;5.40;;
16139;SDS011;8175;49.326;12.690;2023-05-07T08:58:51;5.82;;;5.32;;
16139;SDS011;8175;49.326;12.690;2023-05-07T09:01:21;6.03;;;5.43;;
16139;SDS011;8175;49.326;12.690;2023-05-07T09:03:47;5.65;;;5.18;;
16139;SDS011;8175;49.326;12.690;2023-05-07T09:06:13;5.47;;;5.07;;
16139;SDS011;8175;49.326;12.690;2023-05-07T09:08:39;5.80;;;5.30;;
16139;SDS011;8175;49.326;12.690;2023-05-07T09:11:04;6.15;;;5.65;;
16139;SDS011;8175;49.326;12.690;2023-05-07T09:13:30;6.13;;;5.63;;
16139;SDS011;8175;49.326;12.690;2023-05-07T09:15:56;5.63;;;5.18;;
16139;SDS011;8175;49.326;12.690;2023-05-07T09:18:23;6.20;;;5.60;;
16139;SDS011;8175;49.326;12.690;2023-05-07T09:20:50;5.78;;;5.25;;
16139;SDS011;8175;49.326;12.690;2023-05-07T09:23:16;6.03;;;5.30;;
16139;SDS011;8175;49.326;12.690;2023-05-07T09:25:41;6.25;;;5.65;;
16139;SDS011;8175;49.326;12.690;2023-05-07T09:28:07;5.88;;;5.38;;
16139;SDS011;8175;49.326;12.690;2023-05-07T09:30:35;6.32;;;5.80;;
16139;SDS011;8175;49.326;12.690;2023-05-07T09:33:01;6.32;;;5.82;;
16139;SDS011;8175;49.326;12.690;2023-05-07T09:35:27;6.45;;;5.85;;
16139;SDS011;8175;49.326;12.690;2023-05-07T09:37:54;6.63;;;6.05;;
16139;SDS011;8175;49.326;12.690;2023-05-07T09:40:28;8.10;;;5.82;;
16139;SDS011;8175;49.326;12.690;2023-05-07T09:42:55;5.90;;;5.28;;
16139;SDS011;8175;49.326;12.690;2023-05-07T09:45:21;5.63;;;4.93;;
16139;SDS011;8175;49.326;12.690;2023-05-07T09:47:50;6.32;;;5.72;;
16139;SDS011;8175;49.326;12.690;2023-05-07T09:50:19;6.75;;;6.15;;
16139;SDS011;8175;49.326;12.690;2023-05-07T09:52:50;6.60;;;6.00;;
16139;SDS011;8175;49.326;12.690;2023-05-07T09:55:16;6.47;;;5.88;;
16139;SDS011;8175;49.326;12.690;2023-05-07T09:57:43;6.65;;;6.05;;
16139;SDS011;8175;49.326;12.690;2023-05-07T10:00:10;6.85;;;6.32;;
16139;SDS011;8175;49.326;12.690;2023-05-07T10:02:36;6.60;;;6.00;;
16139;SDS011;8175;49.326;12.690;2023-05-07T10:05:06;7.13;;;6.43;;
16139;SDS011;8175;49.326;12.690;2023-05-07T10:07:32;6.40;;;5.90;;
16139;SDS011;8175;49.326;12.690;2023-05-07T10:09:57;7.40;;;6.70;;
16139;SDS011;8175;49.326;12.690;2023-05-07T10:12:24;7.03;;;6.43;;
16139;SDS011;8175;49.326;12.690;2023-05-07T10:14:51;7.18;;;6.35;;
16139;SDS011;8175;49.326;12.690;2023-05-07T10:17:19;6.82;;;6.22;;
16139;SDS011;8175;49.326;12.690;2023-05-07T10:19:45;6.65;;;5.65;;
16139;SDS011;8175;49.326;12.690;2023-05-07T10:22:11;5.85;;;5.35;;
16139;SDS011;8175;49.326;12.690;2023-05-07T10:24:40;6.25;;;5.75;;
16139;SDS011;8175;49.326;12.690;2023-05-07T10:27:11;5.93;;;5.43;;
16139;SDS011;8175;49.326;12.690;2023-05-07T10:29:49;5.20;;;4.70;;
16139;SDS011;8175;49.326;12.690;2023-05-07T10:32:42;4.90;;;4.43;;
16139;SDS011;8175;49.326;12.690;2023-05-07T10:35:26;5.05;;;4.55;;
16139;SDS011;8175;49.326;12.690;2023-05-07T10:37:56;5.25;;;4.75;;
16139;SDS011;8175;49.326;12.690;2023-05-07T10:40:22;5.07;;;4.30;;
16139;SDS011;8175;49.326;12.690;2023-05-07T10:42:55;5.95;;;5.45;;
16139;SDS011;8175;49.326;12.690;2023-05-07T10:45:22;4.50;;;4.20;;
16139;SDS011;8175;49.326;12.690;2023-05-07T10:48:11;5.90;;;5.35;;
16139;SDS011;8175;49.326;12.690;2023-05-07T10:50:35;5.25;;;4.78;;
16139;SDS011;8175;49.326;12.690;2023-05-07T10:55:42;5.53;;;5.00;;
16139;SDS011;8175;49.326;12.690;2023-05-07T10:58:27;5.40;;;4.90;;
16139;SDS011;8175;49.326;12.690;2023-05-07T11:00:57;5.68;;;5.10;;
16139;SDS011;8175;49.326;12.690;2023-05-07T11:03:24;5.13;;;4.72;;
16139;SDS011;8175;49.326;12.690;2023-05-07T11:08:55;5.15;;;4.43;;
16139;SDS011;8175;49.326;12.690;2023-05-07T11:11:43;5.47;;;4.60;;
16139;SDS011;8175;49.326;12.690;2023-05-07T11:14:42;5.50;;;4.53;;
16139;SDS011;8175;49.326;12.690;2023-05-07T11:17:14;4.70;;;4.18;;
16139;SDS011;8175;49.326;12.690;2023-05-07T11:19:47;4.28;;;3.90;;
16139;SDS011;8175;49.326;12.690;2023-05-07T11:25:04;4.80;;;4.35;;
16139;SDS011;8175;49.326;12.690;2023-05-07T11:27:31;5.20;;;4.57;;
16139;SDS011;8175;49.326;12.690;2023-05-07T11:29:57;4.90;;;4.50;;
16139;SDS011;8175;49.326;12.690;2023-05-07T11:32:32;4.50;;;4.10;;
16139;SDS011;8175;49.326;12.690;2023-05-07T11:34:58;5.47;;;4.55;;
16139;SDS011;8175;49.326;12.690;2023-05-07T11:37:26;5.28;;;4.78;;
16139;SDS011;8175;49.326;12.690;2023-05-07T11:40:04;4.85;;;4.45;;
16139;SDS011;8175;49.326;12.690;2023-05-07T11:42:35;5.70;;;5.20;;
16139;SDS011;8175;49.326;12.690;2023-05-07T11:45:02;4.93;;;4.53;;
16139;SDS011;8175;49.326;12.690;2023-05-07T11:47:32;5.88;;;5.38;;
16139;SDS011;8175;49.326;12.690;2023-05-07T11:50:02;5.32;;;4.32;;
16139;SDS011;8175;49.326;12.690;2023-05-07T11:52:32;5.45;;;4.95;;
16139;SDS011;8175;49.326;12.690;2023-05-07T11:54:59;4.70;;;4.30;;
16139;SDS011;8175;49.326;12.690;2023-05-07T11:57:26;5.22;;;4.72;;
16139;SDS011;8175;49.326;12.690;2023-05-07T11:59:52;5.88;;;5.38;;
16139;SDS011;8175;49.326;12.690;2023-05-07T12:02:19;6.00;;;5.43;;
16139;SDS011;8175;49.326;12.690;2023-05-07T12:04:44;7.82;;;5.35;;
16139;SDS011;8175;49.326;12.690;2023-05-07T12:07:14;6.07;;;5.47;;
16139;SDS011;8175;49.326;12.690;2023-05-07T12:09:43;7.28;;;5.20;;
16139;SDS011;8175;49.326;12.690;2023-05-07T12:12:09;5.75;;;5.25;;
16139;SDS011;8175;49.326;12.690;2023-05-07T12:14:39;5.25;;;4.72;;
16139;SDS011;8175;49.326;12.690;2023-05-07T12:17:05;5.25;;;4.75;;
16139;SDS011;8175;49.326;12.690;2023-05-07T12:19:33;5.03;;;4.63;;
16139;SDS011;8175;49.326;12.690;2023-05-07T12:22:00;6.55;;;5.15;;
16139;SDS011;8175;49.326;12.690;2023-05-07T12:24:27;5.93;;;5.32;;
16139;SDS011;8175;49.326;12.690;2023-05-07T12:26:53;5.45;;;5.05;;
16139;SDS011;8175;49.326;12.690;2023-05-07T12:29:22;5.45;;;4.95;;
16139;SDS011;8175;49.326;12.690;2023-05-07T12:31:49;5.47;;;4.90;;
16139;SDS011;8175;49.326;12.690;2023-05-07T12:34:15;5.22;;;4.82;;
16139;SDS011;8175;49.326;12.690;2023-05-07T12:36:41;5.57;;;4.90;;
16139;SDS011;8175;49.326;12.690;2023-05-07T12:39:07;5.30;;;4.82;;
16139;SDS011;8175;49.326;12.690;2023-05-07T12:41:51;5.40;;;4.90;;
16139;SDS011;8175;49.326;12.690;2023-05-07T12:44:23;4.82;;;4.43;;
16139;SDS011;8175;49.326;12.690;2023-05-07T12:46:50;5.07;;;4.63;;
16139;SDS011;8175;49.326;12.690;2023-05-07T12:49:16;4.50;;;4.03;;
16139;SDS011;8175;49.326;12.690;2023-05-07T12:51:43;4.55;;;3.83;;
16139;SDS011;8175;49.326;12.690;2023-05-07T12:54:09;4.53;;;4.13;;
16139;SDS011;8175;49.326;12.690;2023-05-07T12:56:37;4.75;;;4.35;;
16139;SDS011;8175;49.326;12.690;2023-05-07T12:59:05;4.68;;;4.28;;
16139;SDS011;8175;49.326;12.690;2023-05-07T13:01:30;4.55;;;4.10;;
16139;SDS011;8175;49.326;12.690;2023-05-07T13:04:02;5.05;;;4.60;;
16139;SDS011;8175;49.326;12.690;2023-05-07T13:06:29;5.13;;;4.63;;
16139;SDS011;8175;49.326;12.690;2023-05-07T13:08:56;5.00;;;4.28;;
16139;SDS011;8175;49.326;12.690;2023-05-07T13:11:21;4.43;;;4.03;;
16139;SDS011;8175;49.326;12.690;2023-05-07T13:13:48;3.97;;;3.63;;
16139;SDS011;8175;49.326;12.690;2023-05-07T13:16:13;4.50;;;4.05;;
16139;SDS011;8175;49.326;12.690;2023-05-07T13:18:39;4.60;;;4.20;;
16139;SDS011;8175;49.326;12.690;2023-05-07T13:21:06;4.88;;;4.47;;
16139;SDS011;8175;49.326;12.690;2023-05-07T13:23:31;3.45;;;3.15;;
16139;SDS011;8175;49.326;12.690;2023-05-07T13:25:57;5.53;;;5.03;;
16139;SDS011;8175;49.326;12.690;2023-05-07T13:28:23;5.78;;;5.18;;
16139;SDS011;8175;49.326;12.690;2023-05-07T13:30:49;5.65;;;4.95;;
16139;SDS011;8175;49.326;12.690;2023-05-07T13:33:17;5.43;;;4.93;;
16139;SDS011;8175;49.326;12.690;2023-05-07T13:35:42;5.22;;;4.68;;
16139;SDS011;8175;49.326;12.690;2023-05-07T13:38:08;5.72;;;5.18;;
16139;SDS011;8175;49.326;12.690;2023-05-07T13:40:34;5.28;;;4.78;;
16139;SDS011;8175;49.326;12.690;2023-05-07T13:42:59;6.22;;;4.82;;
16139;SDS011;8175;49.326;12.690;2023-05-07T13:45:27;5.25;;;4.43;;
16139;SDS011;8175;49.326;12.690;2023-05-07T13:47:54;5.00;;;4.60;;
16139;SDS011;8175;49.326;12.690;2023-05-07T13:50:21;4.90;;;4.50;;
16139;SDS011;8175;49.326;12.690;2023-05-07T13:52:46;4.90;;;4.50;;
16139;SDS011;8175;49.326;12.690;2023-05-07T13:55:18;5.90;;;4.90;;
16139;SDS011;8175;49.326;12.690;2023-05-07T13:57:54;5.85;;;5.35;;
16139;SDS011;8175;49.326;12.690;2023-05-07T14:00:21;6.10;;;5.45;;
16139;SDS011;8175;49.326;12.690;2023-05-07T14:02:47;5.68;;;5.18;;
16139;SDS011;8175;49.326;12.690;2023-05-07T14:05:13;6.28;;;5.68;;
16139;SDS011;8175;49.326;12.690;2023-05-07T14:07:38;6.07;;;5.47;;
16139;SDS011;8175;49.326;12.690;2023-05-07T14:10:04;6.30;;;5.75;;
16139;SDS011;8175;49.326;12.690;2023-05-07T14:12:31;5.88;;;5.32;;
16139;SDS011;8175;49.326;12.690;2023-05-07T14:14:57;7.13;;;5.90;;
16139;SDS011;8175;49.326;12.690;2023-05-07T14:17:22;6.30;;;5.70;;
16139;SDS011;8175;49.326;12.690;2023-05-07T14:19:50;5.85;;;5.32;;
16139;SDS011;8175;49.326;12.690;2023-05-07T14:22:15;6.45;;;5.40;;
16139;SDS011;8175;49.326;12.690;2023-05-07T14:24:41;6.53;;;5.75;;
16139;SDS011;8175;49.326;12.690;2023-05-07T14:27:07;7.70;;;6.18;;
16139;SDS011;8175;49.326;12.690;2023-05-07T14:29:32;5.65;;;5.03;;
16139;SDS011;8175;49.326;12.690;2023-05-07T14:32:00;6.88;;;6.05;;
16139;SDS011;8175;49.326;12.690;2023-05-07T14:34:26;6.55;;;5.95;;
16139;SDS011;8175;49.326;12.690;2023-05-07T14:36:51;7.07;;;6.38;;
16139;SDS011;8175;49.326;12.690;2023-05-07T14:39:17;7.60;;;6.90;;
16139;SDS011;8175;49.326;12.690;2023-05-07T14:41:43;6.65;;;6.05;;
16139;SDS011;8175;49.326;12.690;2023-05-07T14:44:08;6.88;;;6.28;;
16139;SDS011;8175;49.326;12.690;2023-05-07T14:46:34;7.80;;;7.05;;
16139;SDS011;8175;49.326;12.690;2023-05-07T14:49:00;6.90;;;6.20;;
16139;SDS011;8175;49.326;12.690;2023-05-07T14:51:26;7.85;;;7.10;;
16139;SDS011;8175;49.326;12.690;2023-05-07T14:53:53;6.38;;;5.88;;
16139;SDS011;8175;49.326;12.690;2023-05-07T14:56:19;7.20;;;6.55;;
16139;SDS011;8175;49.326;12.690;2023-05-07T14:58:46;6.93;;;6.30;;
16139;SDS011;8175;49.326;12.690;2023-05-07T15:01:13;7.05;;;6.35;;
16139;SDS011;8175;49.326;12.690;2023-05-07T15:03:39;6.93;;;6.22;;
16139;SDS011;8175;49.326;12.690;2023-05-07T15:06:05;7.00;;;6.30;;
16139;SDS011;8175;49.326;12.690;2023-05-07T15:08:30;6.53;;;5.93;;
16139;SDS011;8175;49.326;12.690;2023-05-07T15:10:56;7.05;;;6.35;;
16139;SDS011;8175;49.326;12.690;2023-05-07T15:13:22;6.50;;;5.90;;
16139;SDS011;8175;49.326;12.690;2023-05-07T15:15:47;6.78;;;6.18;;
16139;SDS011;8175;49.326;12.690;2023-05-07T15:18:14;7.07;;;6.38;;
16139;SDS011;8175;49.326;12.690;2023-05-07T15:20:40;8.05;;;7.07;;
16139;SDS011;8175;49.326;12.690;2023-05-07T15:23:06;7.13;;;6.43;;
16139;SDS011;8175;49.326;12.690;2023-05-07T15:25:37;6.63;;;5.93;;
16139;SDS011;8175;49.326;12.690;2023-05-07T15:28:03;6.70;;;6.10;;
16139;SDS011;8175;49.326;12.690;2023-05-07T15:30:28;6.60;;;6.00;;
16139;SDS011;8175;49.326;12.690;2023-05-07T15:32:54;6.68;;;6.07;;
16139;SDS011;8175;49.326;12.690;2023-05-07T15:35:20;5.80;;;5.30;;
16139;SDS011;8175;49.326;12.690;2023-05-07T15:37:47;6.95;;;6.25;;
16139;SDS011;8175;49.326;12.690;2023-05-07T15:40:16;6.40;;;5.80;;
16139;SDS011;8175;49.326;12.690;2023-05-07T15:42:42;6.43;;;5.82;;
16139;SDS011;8175;49.326;12.690;2023-05-07T15:45:10;6.20;;;5.60;;
16139;SDS011;8175;49.326;12.690;2023-05-07T15:47:36;6.13;;;5.53;;
16139;SDS011;8175;49.326;12.690;2023-05-07T15:50:02;6.50;;;5.80;;
16139;SDS011;8175;49.326;12.690;2023-05-07T15:52:28;6.53;;;5.60;;
16139;SDS011;8175;49.326;12.690;2023-05-07T15:54:54;6.47;;;5.88;;
16139;SDS011;8175;49.326;12.690;2023-05-07T15:57:21;6.95;;;6.22;;
16139;SDS011;8175;49.326;12.690;2023-05-07T15:59:47;7.05;;;6.05;;
16139;SDS011;8175;49.326;12.690;2023-05-07T16:02:13;6.40;;;5.70;;
16139;SDS011;8175;49.326;12.690;2023-05-07T16:04:39;6.23;;;5.57;;
16139;SDS011;8175;49.326;12.690;2023-05-07T16:07:05;6.07;;;5.57;;
16139;SDS011;8175;49.326;12.690;2023-05-07T16:09:31;6.90;;;6.20;;
16139;SDS011;8175;49.326;12.690;2023-05-07T16:11:57;7.80;;;6.70;;
16139;SDS011;8175;49.326;12.690;2023-05-07T16:14:24;6.30;;;5.57;;
16139;SDS011;8175;49.326;12.690;2023-05-07T16:16:50;7.20;;;6.50;;
16139;SDS011;8175;49.326;12.690;2023-05-07T16:19:15;5.77;;;5.27;;
16139;SDS011;8175;49.326;12.690;2023-05-07T16:21:41;6.63;;;5.93;;
16139;SDS011;8175;49.326;12.690;2023-05-07T16:24:06;5.93;;;5.40;;
16139;SDS011;8175;49.326;12.690;2023-05-07T16:26:32;6.17;;;5.63;;
16139;SDS011;8175;49.326;12.690;2023-05-07T16:28:58;6.40;;;5.80;;
16139;SDS011;8175;49.326;12.690;2023-05-07T16:31:25;6.87;;;6.17;;
16139;SDS011;8175;49.326;12.690;2023-05-07T16:33:51;6.33;;;5.73;;
16139;SDS011;8175;49.326;12.690;2023-05-07T16:36:17;6.53;;;5.93;;
16139;SDS011;8175;49.326;12.690;2023-05-07T16:38:43;6.77;;;6.17;;
16139;SDS011;8175;49.326;12.690;2023-05-07T16:41:09;6.93;;;5.60;;
16139;SDS011;8175;49.326;12.690;2023-05-07T16:43:34;6.57;;;5.97;;
16139;SDS011;8175;49.326;12.690;2023-05-07T16:46:00;6.87;;;6.00;;
16139;SDS011;8175;49.326;12.690;2023-05-07T16:48:26;7.43;;;6.63;;
16139;SDS011;8175;49.326;12.690;2023-05-07T16:50:52;8.40;;;6.07;;
16139;SDS011;8175;49.326;12.690;2023-05-07T16:53:17;6.87;;;5.70;;
16139;SDS011;8175;49.326;12.690;2023-05-07T16:55:44;6.87;;;6.13;;
16139;SDS011;8175;49.326;12.690;2023-05-07T16:58:10;8.10;;;7.30;;